EDSB/FKB METAR and TAF weather

Enter ICAO airport designator
Station Type Date Time Source
EDSB METAR 2018/07/21 03:50 UTC NOAA

EDSB 210350Z 22005KT CAVOK 18/17 Q1011


Station Type Date Time Source
EDSB Decoded METAR 2018/07/21 03:50 UTC NOAA

Karlsruhe, Baden Wurttemberg, Germany (EDSB) 48-46-43N 008-04-47E
Jul 20, 2018 - 11:50 PM EDT / 2018.07.21 0350 UTC
Wind: from the SW (220 degrees) at 6 MPH (5 KT):0
Visibility: greater than 7 mile(s):0
Temperature: 64 F (18 C)
Dew Point: 62 F (17 C)
Relative Humidity: 93%
Pressure (altimeter): 29.85 in. Hg (1011 hPa)
ob: EDSB 210350Z 22005KT CAVOK 18/17 Q1011
cycle: 4

Station Type Date Time Source
EDSB TAF 2018/07/21 04:13 UTC NOAA

TAF EDSB 210300Z 2104/2124 22005KT CAVOK
TEMPO 2106/2124 SHRA SCT040CB PROB40
TEMPO 2106/2124 24015G25KT TSRA BKN045CB


Example: see airport list